Time;durP1;ratioP1;P1;durP2;ratioP2;P2;SDS_P1;SDS_P2;PMS_P1;PMS_P2;Temp;Humidity;BMP_temperature;BMP_pressure;BME280_temperature;BME280_humidity;BME280_pressure;Samples;Min_cycle;Max_cycle;Signal;HPM_P1;HPM_P2
2022/01/05 00:00:23;;;;;;;10.02;2.47;;;1.40;99.90;;;;;;5052054;28;20476;-72
2022/01/05 00:02:50;;;;;;;10.23;1.67;;;1.30;99.90;;;;;;5051407;28;20115;-72
2022/01/05 00:05:17;;;;;;;11.25;1.80;;;1.30;99.90;;;;;;5068994;28;20130;-72
2022/01/05 00:07:44;;;;;;;5.13;1.40;;;1.30;99.90;;;;;;5053149;28;20065;-72
2022/01/05 00:10:11;;;;;;;9.50;1.80;;;1.30;99.90;;;;;;5081723;28;20048;-71
2022/01/05 00:12:39;;;;;;;11.00;3.25;;;1.30;99.90;;;;;;5088409;28;20098;-71
2022/01/05 00:15:07;;;;;;;6.57;1.88;;;1.20;99.90;;;;;;5088719;28;20045;-72
2022/01/05 00:17:34;;;;;;;6.85;1.92;;;1.20;99.90;;;;;;5087765;28;20056;-72
2022/01/05 00:20:01;;;;;;;12.43;2.35;;;1.20;99.90;;;;;;5072028;28;20542;-72
2022/01/05 00:22:28;;;;;;;8.52;2.15;;;1.20;99.90;;;;;;5071980;28;20048;-71
2022/01/05 00:24:55;;;;;;;7.97;2.60;;;1.20;99.90;;;;;;5088364;28;20078;-71
2022/01/05 00:27:22;;;;;;;6.05;2.22;;;1.20;99.90;;;;;;5071564;28;20448;-71
2022/01/05 00:29:50;;;;;;;8.57;1.83;;;1.70;99.90;;;;;;5071847;28;20048;-72
2022/01/05 00:32:17;;;;;;;9.35;1.77;;;2.00;99.90;;;;;;5087982;28;20052;-72
2022/01/05 00:34:44;;;;;;;9.80;1.60;;;1.20;99.90;;;;;;5088410;28;20102;-72
2022/01/05 00:37:10;;;;;;;8.23;2.45;;;1.20;99.90;;;;;;5071797;28;20052;-72
2022/01/05 00:39:37;;;;;;;8.25;2.60;;;1.20;99.90;;;;;;5070540;28;20044;-71
2022/01/05 00:42:05;;;;;;;9.90;2.30;;;1.20;99.90;;;;;;5089043;28;20114;-72
2022/01/05 00:44:32;;;;;;;13.23;2.65;;;1.20;99.90;;;;;;5075310;28;20068;-72
2022/01/05 00:47:00;;;;;;;13.27;3.28;;;1.20;99.90;;;;;;5092582;28;20060;-72
2022/01/05 00:49:27;;;;;;;12.65;3.22;;;1.20;99.90;;;;;;5092846;28;20048;-73
2022/01/05 00:51:54;;;;;;;7.47;2.50;;;1.30;99.90;;;;;;5074932;28;20060;-73
2022/01/05 00:54:21;;;;;;;14.02;2.85;;;1.30;99.90;;;;;;5058570;28;20037;-72
2022/01/05 00:56:48;;;;;;;11.90;2.08;;;1.40;99.90;;;;;;5054989;28;20110;-72
2022/01/05 00:59:15;;;;;;;8.50;2.08;;;2.00;99.90;;;;;;5054687;28;20099;-72
2022/01/05 01:01:42;;;;;;;9.88;2.60;;;1.50;99.90;;;;;;5071970;28;20053;-72
2022/01/05 01:04:10;;;;;;;12.55;2.30;;;1.50;99.90;;;;;;5055609;28;20115;-72
2022/01/05 01:06:37;;;;;;;10.82;2.58;;;1.60;99.90;;;;;;5054639;28;20171;-71
2022/01/05 01:09:04;;;;;;;11.05;2.78;;;1.70;99.90;;;;;;5055050;28;20056;-71
2022/01/05 01:11:31;;;;;;;9.07;2.60;;;1.60;99.90;;;;;;5071974;28;20146;-72
2022/01/05 01:13:58;;;;;;;15.02;3.45;;;1.80;99.90;;;;;;5054394;28;20106;-73
2022/01/05 01:16:24;;;;;;;9.63;2.47;;;1.70;99.90;;;;;;5071797;28;20103;-73
2022/01/05 01:18:51;;;;;;;12.60;2.90;;;1.70;99.90;;;;;;5055277;28;20440;-73
2022/01/05 01:21:20;;;;;;;12.75;2.95;;;1.80;99.90;;;;;;5071011;28;20049;-72
2022/01/05 01:23:55;;;;;;;12.52;2.70;;;1.80;99.90;;;;;;5071541;28;20060;-72
2022/01/05 01:26:23;;;;;;;10.98;2.58;;;1.90;99.90;;;;;;5054699;28;20055;-72
2022/01/05 01:28:50;;;;;;;12.48;2.60;;;1.90;99.90;;;;;;5071058;28;20049;-72
2022/01/05 01:31:17;;;;;;;9.68;2.35;;;1.90;99.90;;;;;;5071902;28;20118;-72
2022/01/05 01:33:45;;;;;;;13.07;2.90;;;1.90;99.90;;;;;;5070751;28;20499;-71
2022/01/05 01:36:12;;;;;;;8.63;2.30;;;1.90;99.90;;;;;;5071230;28;20120;-71
2022/01/05 01:38:41;;;;;;;8.90;2.40;;;1.90;99.90;;;;;;5054543;28;20443;-71
2022/01/05 01:41:08;;;;;;;7.50;2.60;;;2.00;99.90;;;;;;5070605;28;20048;-72
2022/01/05 01:43:36;;;;;;;12.18;2.58;;;2.00;99.90;;;;;;5054404;28;20052;-72
2022/01/05 01:46:04;;;;;;;11.13;1.90;;;2.00;99.90;;;;;;5071259;28;20053;-72
2022/01/05 01:48:31;;;;;;;7.57;2.20;;;2.10;99.90;;;;;;5070746;28;20044;-72
2022/01/05 01:50:58;;;;;;;12.00;2.13;;;2.20;99.90;;;;;;5054394;28;20500;-72
2022/01/05 01:53:25;;;;;;;7.75;2.42;;;2.10;99.90;;;;;;5061071;28;20133;-72
2022/01/05 01:55:55;;;;;;;9.30;3.17;;;2.10;99.90;;;;;;5073455;28;20057;-72
2022/01/05 01:58:26;;;;;;;9.50;2.60;;;2.10;99.90;;;;;;5074222;28;20049;-72
2022/01/05 02:00:53;;;;;;;8.48;2.03;;;2.10;99.90;;;;;;5074749;28;20060;-72
2022/01/05 02:03:21;;;;;;;11.57;2.83;;;2.10;99.90;;;;;;5073659;28;20541;-72
2022/01/05 02:05:48;;;;;;;17.92;3.20;;;2.40;99.90;;;;;;5091382;28;20055;-73
2022/01/05 02:08:15;;;;;;;10.77;3.35;;;2.10;99.90;;;;;;5072112;28;20557;-73
2022/01/05 02:10:43;;;;;;;11.50;2.92;;;2.10;99.90;;;;;;5090746;28;20056;-72
2022/01/05 02:13:11;;;;;;;6.25;2.13;;;2.10;99.90;;;;;;5073724;28;20147;-73
2022/01/05 02:15:40;;;;;;;10.40;3.03;;;2.10;99.90;;;;;;5074115;28;20118;-72
2022/01/05 02:18:57;;;;;;;7.80;2.15;;;2.10;99.90;;;;;;5073032;28;20052;-72
2022/01/05 02:21:01;;;;;;;9.73;2.65;;;2.10;99.90;;;;;;5090703;28;20048;-72
2022/01/05 02:23:28;;;;;;;9.80;2.30;;;2.10;99.90;;;;;;5081493;28;20053;-72
2022/01/05 02:25:55;;;;;;;9.02;2.65;;;2.10;99.90;;;;;;5053991;28;20052;-72
2022/01/05 02:28:22;;;;;;;13.25;3.13;;;2.10;99.90;;;;;;5054907;28;20051;-71
2022/01/05 02:30:52;;;;;;;16.38;2.53;;;2.20;99.90;;;;;;5053383;28;20171;-71
2022/01/05 02:33:19;;;;;;;11.07;2.70;;;3.20;99.90;;;;;;5070176;28;20053;-71
2022/01/05 02:35:46;;;;;;;13.68;2.97;;;2.30;99.90;;;;;;5053808;28;20110;-71
2022/01/05 02:38:18;;;;;;;13.48;3.15;;;2.20;99.90;;;;;;5052845;28;20516;-71
2022/01/05 02:40:45;;;;;;;10.85;3.35;;;2.30;99.90;;;;;;5053616;28;20114;-71
2022/01/05 02:43:12;;;;;;;12.05;2.90;;;2.90;99.90;;;;;;5053358;28;20489;-71
2022/01/05 02:45:39;;;;;;;18.90;3.45;;;2.40;99.90;;;;;;5052964;28;20048;-71
2022/01/05 02:48:06;;;;;;;12.15;3.67;;;2.40;99.90;;;;;;5053402;28;20103;-71
2022/01/05 02:50:33;;;;;;;13.00;3.25;;;2.40;99.90;;;;;;5053585;28;20443;-71
2022/01/05 02:53:00;;;;;;;13.25;3.80;;;2.40;99.90;;;;;;5056817;28;20500;-71
2022/01/05 02:55:28;;;;;;;11.07;2.97;;;2.50;99.90;;;;;;5073296;28;20065;-71
2022/01/05 02:57:55;;;;;;;14.65;3.03;;;2.50;99.90;;;;;;5072936;28;20060;-71
2022/01/05 03:00:22;;;;;;;11.00;2.72;;;2.60;99.90;;;;;;5072231;28;20102;-71
2022/01/05 03:02:49;;;;;;;14.02;2.80;;;2.60;99.90;;;;;;5089811;28;20048;-71
2022/01/05 03:05:16;;;;;;;10.18;2.30;;;2.60;99.90;;;;;;5089058;28;20412;-71
2022/01/05 03:07:43;;;;;;;8.85;2.83;;;3.00;99.90;;;;;;5073130;28;20400;-70
2022/01/05 03:10:12;;;;;;;14.68;2.80;;;3.80;99.90;;;;;;5070004;28;20382;-72
2022/01/05 03:12:42;;;;;;;16.98;3.20;;;3.00;99.90;;;;;;5068720;28;20084;-71
2022/01/05 03:15:10;;;;;;;7.00;2.30;;;3.10;99.90;;;;;;5053203;28;20547;-71
2022/01/05 03:17:37;;;;;;;20.50;2.55;;;3.10;99.90;;;;;;5069552;28;20061;-71
2022/01/05 03:20:04;;;;;;;11.77;2.58;;;3.20;99.90;;;;;;5052310;28;20451;-71
2022/01/05 03:22:31;;;;;;;10.32;2.60;;;3.30;99.90;;;;;;5052145;28;20562;-71
2022/01/05 03:24:58;;;;;;;7.65;2.78;;;3.40;99.90;;;;;;5069095;28;20102;-71
2022/01/05 03:27:25;;;;;;;12.48;2.22;;;3.40;99.90;;;;;;5052341;28;20091;-72
2022/01/05 03:29:53;;;;;;;13.40;2.80;;;3.30;99.90;;;;;;5052244;28;20045;-73
2022/01/05 03:32:20;;;;;;;19.45;3.17;;;3.30;99.90;;;;;;5053829;28;20496;-72
2022/01/05 03:34:50;;;;;;;12.02;2.60;;;3.40;99.90;;;;;;5068621;28;20477;-72
2022/01/05 03:37:17;;;;;;;14.35;2.35;;;3.40;99.90;;;;;;5052766;28;20452;-72
2022/01/05 03:39:44;;;;;;;12.15;2.13;;;3.40;99.90;;;;;;5051991;28;20500;-72
2022/01/05 03:42:11;;;;;;;7.70;2.03;;;3.40;99.90;;;;;;5051720;28;20053;-73
2022/01/05 03:44:37;;;;;;;10.30;2.22;;;3.40;99.90;;;;;;5052300;28;20053;-71
2022/01/05 03:47:06;;;;;;;11.77;2.67;;;3.30;99.90;;;;;;5052522;28;20057;-71
2022/01/05 03:49:33;;;;;;;10.63;2.50;;;3.30;99.90;;;;;;5051597;28;20044;-72
2022/01/05 03:52:00;;;;;;;8.00;2.35;;;3.20;99.90;;;;;;5068871;28;20103;-71
2022/01/05 03:54:27;;;;;;;13.90;2.45;;;3.10;99.90;;;;;;5064178;28;20552;-71
2022/01/05 03:56:54;;;;;;;7.75;2.42;;;3.10;99.90;;;;;;5069022;28;20104;-71
2022/01/05 03:59:21;;;;;;;10.52;2.95;;;3.10;99.90;;;;;;5051767;28;20055;-71
2022/01/05 04:01:48;;;;;;;8.27;2.50;;;3.10;99.90;;;;;;5051441;28;20053;-72
2022/01/05 04:04:16;;;;;;;9.32;2.30;;;3.10;99.90;;;;;;5051953;28;20492;-72
2022/01/05 04:06:43;;;;;;;9.88;2.08;;;3.10;99.90;;;;;;5052032;28;20053;-71
2022/01/05 04:09:10;;;;;;;14.73;2.20;;;3.10;99.90;;;;;;5050956;28;20102;-71
2022/01/05 04:11:37;;;;;;;9.05;2.05;;;3.20;99.90;;;;;;5051809;28;20059;-72
2022/01/05 04:14:04;;;;;;;5.93;1.75;;;3.40;99.90;;;;;;5052025;28;20393;-72
2022/01/05 04:16:31;;;;;;;9.60;2.22;;;3.30;99.90;;;;;;5050539;28;20493;-72
2022/01/05 04:18:58;;;;;;;4.53;1.63;;;3.40;99.90;;;;;;5051493;28;20138;-72
2022/01/05 04:21:26;;;;;;;6.35;1.85;;;3.40;99.90;;;;;;5051930;28;20493;-72
2022/01/05 04:23:53;;;;;;;6.40;1.40;;;3.30;99.90;;;;;;5051234;28;20091;-72
2022/01/05 04:26:20;;;;;;;8.70;2.35;;;3.30;99.90;;;;;;5051983;28;20052;-72
2022/01/05 04:28:47;;;;;;;11.32;1.60;;;3.40;99.90;;;;;;5051884;28;20448;-72
2022/01/05 04:31:14;;;;;;;10.23;1.88;;;3.20;99.90;;;;;;5051108;28;20052;-72
2022/01/05 04:33:41;;;;;;;9.70;2.13;;;3.10;99.90;;;;;;5068025;28;20045;-72
2022/01/05 04:36:08;;;;;;;12.05;2.28;;;3.00;99.90;;;;;;5051608;28;20049;-72
2022/01/05 04:38:36;;;;;;;7.43;1.88;;;3.00;99.90;;;;;;5051141;28;20515;-72
2022/01/05 04:41:04;;;;;;;7.72;1.95;;;3.00;99.90;;;;;;5051474;28;20052;-73
2022/01/05 04:43:31;;;;;;;5.40;1.90;;;3.00;99.90;;;;;;5051553;28;20085;-72
2022/01/05 04:45:57;;;;;;;6.72;2.20;;;3.00;99.90;;;;;;5051204;28;20049;-72
2022/01/05 04:48:24;;;;;;;8.88;2.22;;;3.00;99.90;;;;;;5051705;28;20041;-72
2022/01/05 04:50:51;;;;;;;10.52;2.05;;;3.00;99.90;;;;;;5051080;28;20057;-73
2022/01/05 04:53:18;;;;;;;7.72;1.88;;;3.10;99.90;;;;;;5076800;28;20052;-73
2022/01/05 04:55:47;;;;;;;11.75;2.38;;;3.00;99.90;;;;;;5088194;28;20114;-73
2022/01/05 04:58:14;;;;;;;6.90;2.65;;;3.00;99.90;;;;;;5088020;28;20118;-72
2022/01/05 05:00:41;;;;;;;10.60;2.50;;;2.90;99.90;;;;;;5072113;28;20072;-72
2022/01/05 05:03:08;;;;;;;9.80;2.08;;;3.60;99.90;;;;;;5072673;28;20056;-72
2022/01/05 05:05:35;;;;;;;12.30;2.40;;;2.90;99.90;;;;;;5070961;28;20044;-71
2022/01/05 05:08:03;;;;;;;10.73;2.53;;;2.90;99.90;;;;;;5088467;28;20138;-72
2022/01/05 05:10:29;;;;;;;19.15;3.03;;;3.00;99.90;;;;;;5071519;28;20070;-72
2022/01/05 05:12:58;;;;;;;13.13;3.53;;;3.00;99.90;;;;;;5070785;28;20056;-73
2022/01/05 05:15:26;;;;;;;10.18;2.80;;;3.00;99.90;;;;;;5088092;28;20056;-72
2022/01/05 05:17:53;;;;;;;17.27;3.40;;;3.10;99.90;;;;;;5071358;28;20056;-72
2022/01/05 05:20:20;;;;;;;11.05;2.92;;;3.20;99.90;;;;;;5070416;28;20045;-72
2022/01/05 05:22:47;;;;;;;13.45;3.17;;;3.30;99.90;;;;;;5066697;28;20142;-72
2022/01/05 05:25:14;;;;;;;14.60;3.58;;;3.40;99.90;;;;;;5051334;28;20111;-71
2022/01/05 05:27:40;;;;;;;12.40;3.05;;;3.40;99.90;;;;;;5067679;28;20091;-71
2022/01/05 05:30:09;;;;;;;8.48;2.65;;;3.50;99.90;;;;;;5071314;28;20048;-72
2022/01/05 05:32:36;;;;;;;9.98;2.40;;;3.60;99.90;;;;;;5054582;28;20053;-72
2022/01/05 05:35:03;;;;;;;13.38;2.58;;;3.60;99.90;;;;;;5054270;28;20053;-72
2022/01/05 05:37:30;;;;;;;8.77;2.03;;;3.70;99.90;;;;;;5055549;28;20072;-70
2022/01/05 05:39:58;;;;;;;14.23;3.70;;;3.80;99.90;;;;;;5062198;28;21250;-71
2022/01/05 05:42:26;;;;;;;13.68;3.17;;;3.70;99.90;;;;;;5070566;28;20053;-72
2022/01/05 05:44:53;;;;;;;14.18;2.97;;;3.70;99.90;;;;;;5064617;28;20049;-71
2022/01/05 05:47:22;;;;;;;10.80;2.63;;;3.60;99.90;;;;;;5064588;28;20103;-72
2022/01/05 05:49:48;;;;;;;14.00;2.90;;;3.50;99.90;;;;;;5066369;28;20056;-71
2022/01/05 05:52:15;;;;;;;17.92;3.50;;;3.50;99.90;;;;;;5071764;28;20061;-71
2022/01/05 05:54:42;;;;;;;11.75;2.35;;;3.50;99.90;;;;;;5061369;28;20138;-71
2022/01/05 05:57:09;;;;;;;13.32;3.05;;;3.50;99.90;;;;;;5067386;28;20142;-71
2022/01/05 05:59:36;;;;;;;11.95;2.30;;;3.50;99.90;;;;;;5070699;28;20044;-71
2022/01/05 06:02:04;;;;;;;16.42;3.03;;;3.50;99.90;;;;;;5057684;28;20091;-70
2022/01/05 06:04:32;;;;;;;9.07;2.67;;;3.60;99.90;;;;;;5069057;28;20075;-72
2022/01/05 06:06:59;;;;;;;15.40;2.60;;;3.60;99.90;;;;;;5075010;28;20080;-71
2022/01/05 06:09:25;;;;;;;10.85;3.03;;;3.60;99.90;;;;;;5061216;28;20048;-72
2022/01/05 06:11:52;;;;;;;8.50;2.53;;;3.60;99.90;;;;;;5064916;28;20557;-71
2022/01/05 06:14:19;;;;;;;9.88;3.10;;;3.60;99.90;;;;;;5078531;28;20106;-72
2022/01/05 06:16:46;;;;;;;8.27;2.35;;;3.70;99.90;;;;;;5069102;28;20052;-71
2022/01/05 06:19:13;;;;;;;8.15;2.13;;;3.70;99.90;;;;;;5072706;28;20084;-71
2022/01/05 06:21:43;;;;;;;9.57;2.47;;;3.80;99.90;;;;;;5066039;28;20040;-71
2022/01/05 06:24:10;;;;;;;18.20;3.05;;;3.80;99.90;;;;;;5063088;28;20114;-72
2022/01/05 06:26:37;;;;;;;8.32;2.25;;;3.80;99.90;;;;;;5063772;28;20134;-72
2022/01/05 06:29:03;;;;;;;8.98;2.85;;;3.80;99.90;;;;;;5063316;28;20141;-72
2022/01/05 06:31:30;;;;;;;10.38;3.47;;;3.80;99.90;;;;;;5061796;28;20072;-72
2022/01/05 06:33:57;;;;;;;11.02;2.92;;;3.80;99.90;;;;;;5063882;28;20077;-70
2022/01/05 06:36:24;;;;;;;19.38;3.08;;;3.90;99.90;;;;;;5061892;28;20081;-70
2022/01/05 06:38:52;;;;;;;16.42;3.58;;;3.90;99.90;;;;;;5059983;28;20405;-71
2022/01/05 06:41:19;;;;;;;13.70;2.95;;;4.00;99.90;;;;;;5062937;28;20052;-72
2022/01/05 06:43:46;;;;;;;10.80;2.60;;;4.00;99.90;;;;;;5061649;28;20105;-70
2022/01/05 06:46:13;;;;;;;14.60;2.80;;;4.10;99.90;;;;;;5068416;28;20052;-70
2022/01/05 06:48:39;;;;;;;11.85;2.60;;;4.00;99.90;;;;;;5069877;28;20107;-71
2022/01/05 06:51:06;;;;;;;17.08;2.90;;;4.10;99.90;;;;;;5063337;28;20447;-71
2022/01/05 06:53:33;;;;;;;10.82;2.95;;;4.10;99.90;;;;;;5057952;28;20499;-71
2022/01/05 06:56:01;;;;;;;6.57;2.15;;;4.10;99.90;;;;;;5059194;28;20465;-71
2022/01/05 06:58:28;;;;;;;8.10;2.15;;;4.10;99.90;;;;;;5059060;28;20049;-71
2022/01/05 07:00:55;;;;;;;9.07;2.15;;;4.10;99.90;;;;;;5057541;28;20554;-73
2022/01/05 07:03:22;;;;;;;7.22;2.17;;;4.10;99.90;;;;;;5060197;28;20051;-73
2022/01/05 07:05:49;;;;;;;11.30;2.00;;;4.10;99.90;;;;;;5054910;28;20079;-71
2022/01/05 07:08:17;;;;;;;13.10;3.17;;;4.10;99.90;;;;;;5060587;28;20091;-72
2022/01/05 07:10:43;;;;;;;10.95;2.20;;;4.10;99.90;;;;;;5058458;28;20457;-71
2022/01/05 07:13:12;;;;;;;12.07;1.90;;;4.10;99.90;;;;;;5060347;28;20090;-70
2022/01/05 07:15:39;;;;;;;11.60;2.10;;;4.00;99.90;;;;;;5057277;28;20099;-71
2022/01/05 07:18:05;;;;;;;13.15;2.40;;;4.00;99.90;;;;;;5054382;28;20060;-70
2022/01/05 07:20:32;;;;;;;7.10;1.70;;;4.00;99.90;;;;;;5059099;28;20044;-70
2022/01/05 07:22:59;;;;;;;11.18;2.08;;;4.00;99.90;;;;;;5063507;28;20111;-70
2022/01/05 07:25:26;;;;;;;8.68;1.50;;;4.00;99.90;;;;;;5057161;28;20098;-70
2022/01/05 07:27:53;;;;;;;13.48;2.20;;;4.00;99.90;;;;;;5058839;28;20041;-72
2022/01/05 07:30:21;;;;;;;15.52;3.33;;;4.10;99.90;;;;;;5060921;28;20377;-72
2022/01/05 07:32:48;;;;;;;12.52;2.53;;;4.10;99.90;;;;;;5060132;28;20060;-73
2022/01/05 07:35:15;;;;;;;13.55;3.33;;;4.10;99.90;;;;;;5061290;28;20056;-73
2022/01/05 07:37:42;;;;;;;13.80;2.38;;;4.10;99.90;;;;;;5061100;28;20048;-73
2022/01/05 07:40:10;;;;;;;10.35;2.42;;;4.20;99.90;;;;;;5061209;28;20049;-71
2022/01/05 07:42:38;;;;;;;13.48;2.35;;;4.20;99.90;;;;;;5064100;28;20048;-74
2022/01/05 07:45:07;;;;;;;9.52;2.53;;;4.10;99.90;;;;;;5056720;28;20044;-71
2022/01/05 07:47:35;;;;;;;10.07;2.08;;;4.20;99.90;;;;;;5050015;28;20094;-72
2022/01/05 07:50:03;;;;;;;10.55;2.13;;;4.50;99.90;;;;;;5066409;28;20557;-73
2022/01/05 07:52:30;;;;;;;6.43;2.00;;;4.20;99.90;;;;;;5068555;28;20079;-72
2022/01/05 07:54:57;;;;;;;10.23;2.30;;;4.20;99.90;;;;;;5062318;28;20130;-72
2022/01/05 07:57:24;;;;;;;8.82;2.08;;;4.20;99.90;;;;;;5062117;28;20393;-73
2022/01/05 07:59:50;;;;;;;11.10;2.35;;;4.30;99.90;;;;;;5051151;28;20052;-73
2022/01/05 08:02:17;;;;;;;12.73;2.25;;;4.30;99.90;;;;;;5050200;28;20116;-72
2022/01/05 08:04:49;;;;;;;7.43;2.03;;;4.40;99.90;;;;;;5067404;28;20102;-72
2022/01/05 08:07:16;;;;;;;8.30;1.83;;;4.30;99.90;;;;;;5063839;28;20086;-72
2022/01/05 08:09:42;;;;;;;9.90;1.90;;;4.20;99.90;;;;;;5055780;28;20087;-72
2022/01/05 08:12:10;;;;;;;16.17;2.58;;;4.30;99.90;;;;;;5050185;28;20099;-72
2022/01/05 08:14:37;;;;;;;10.85;2.35;;;4.30;99.90;;;;;;5060592;28;20583;-72
2022/01/05 08:17:05;;;;;;;13.27;2.40;;;4.40;99.90;;;;;;5063202;28;20064;-72
2022/01/05 08:19:32;;;;;;;12.45;2.10;;;4.40;99.90;;;;;;5056312;28;20480;-72
2022/01/05 08:22:00;;;;;;;12.85;2.25;;;4.40;99.90;;;;;;5061644;28;20069;-72
2022/01/05 08:24:27;;;;;;;11.25;2.22;;;4.40;99.90;;;;;;5060270;28;20044;-72
2022/01/05 08:26:54;;;;;;;11.25;2.30;;;4.50;99.90;;;;;;5053494;28;20499;-73
2022/01/05 08:29:21;;;;;;;8.45;2.78;;;4.50;99.90;;;;;;5057510;28;20175;-73
2022/01/05 08:31:47;;;;;;;9.27;2.45;;;4.60;99.90;;;;;;5085927;28;20439;-72
2022/01/05 08:34:14;;;;;;;13.05;2.97;;;5.00;99.90;;;;;;5065850;28;20048;-72
2022/01/05 08:36:41;;;;;;;13.05;2.65;;;4.60;99.90;;;;;;5062561;28;20504;-73
2022/01/05 08:39:09;;;;;;;11.35;2.55;;;4.70;99.90;;;;;;5059206;28;20049;-72
2022/01/05 08:41:37;;;;;;;19.23;3.47;;;4.80;99.90;;;;;;5056259;28;20439;-72
2022/01/05 08:44:05;;;;;;;14.18;3.33;;;4.80;99.90;;;;;;5064223;28;20090;-72
2022/01/05 08:46:31;;;;;;;9.68;2.60;;;4.90;99.90;;;;;;5051627;28;20412;-73
2022/01/05 08:48:58;;;;;;;12.82;3.10;;;5.30;99.90;;;;;;5056443;28;20056;-73
2022/01/05 08:51:25;;;;;;;16.58;3.40;;;5.00;99.90;;;;;;5060957;28;20044;-73
2022/01/05 08:53:52;;;;;;;23.00;4.25;;;5.30;99.90;;;;;;5055981;28;20080;-72
2022/01/05 08:56:23;;;;;;;9.68;2.88;;;5.10;99.90;;;;;;5049562;28;20079;-72
2022/01/05 08:58:50;;;;;;;14.27;3.25;;;5.10;99.90;;;;;;5054544;28;20451;-72
2022/01/05 09:01:17;;;;;;;10.20;2.63;;;5.20;99.90;;;;;;5057524;28;20135;-73
2022/01/05 09:03:44;;;;;;;13.20;3.28;;;5.20;99.90;;;;;;5061972;28;20072;-73
2022/01/05 09:06:11;;;;;;;14.07;2.85;;;5.40;99.90;;;;;;5063103;28;20052;-73
2022/01/05 09:08:38;;;;;;;20.63;4.00;;;6.10;99.90;;;;;;5069113;28;20111;-73
2022/01/05 09:11:07;;;;;;;14.43;2.97;;;6.40;99.90;;;;;;5072858;28;20048;-73
2022/01/05 09:13:35;;;;;;;12.30;2.70;;;6.30;99.90;;;;;;5073611;28;20056;-72
2022/01/05 09:16:02;;;;;;;10.23;2.95;;;6.10;99.90;;;;;;5060177;28;20056;-73
2022/01/05 09:18:29;;;;;;;21.42;2.97;;;5.90;99.90;;;;;;5059638;28;20055;-73
2022/01/05 09:20:57;;;;;;;9.30;2.22;;;5.70;99.90;;;;;;5053406;28;20091;-72
2022/01/05 09:23:26;;;;;;;8.82;2.92;;;5.50;99.90;;;;;;5057831;28;20088;-73
2022/01/05 09:25:53;;;;;;;11.38;4.22;;;5.50;99.90;;;;;;5072988;28;20060;-73
2022/01/05 09:28:20;;;;;;;13.45;2.42;;;5.90;99.90;;;;;;5067787;28;20048;-73
2022/01/05 09:30:48;;;;;;;5.88;2.05;;;7.00;99.90;;;;;;5073151;28;20052;-73
2022/01/05 09:33:15;;;;;;;16.10;2.78;;;8.00;99.90;;;;;;5072358;28;20557;-71
2022/01/05 09:35:43;;;;;;;13.43;2.88;;;8.80;99.90;;;;;;5065221;28;20056;-71
2022/01/05 09:38:22;;;;;;;14.57;2.45;;;9.50;99.90;;;;;;5053471;28;20048;-72
2022/01/05 09:43:51;;;;;;;10.07;3.58;;;9.90;99.90;;;;;;5064942;28;20455;-73
2022/01/05 09:46:31;;;;;;;12.50;2.85;;;9.30;99.90;;;;;;5052220;28;20080;-73
2022/01/05 09:49:09;;;;;;;29.00;3.70;;;8.80;99.90;;;;;;5053640;28;20476;-73
2022/01/05 09:51:39;;;;;;;11.60;3.10;;;9.20;99.90;;;;;;5073495;28;20421;-73
2022/01/05 09:54:06;;;;;;;8.15;2.38;;;9.40;99.90;;;;;;5066491;28;20045;-73
2022/01/05 09:56:34;;;;;;;10.07;3.15;;;9.60;99.90;;;;;;5070508;28;20052;-73
2022/01/05 09:59:02;;;;;;;9.88;2.83;;;10.50;99.90;;;;;;5070885;28;20106;-72
2022/01/05 10:01:32;;;;;;;14.13;3.40;;;11.30;99.90;;;;;;5071824;28;20518;-73
2022/01/05 10:03:59;;;;;;;14.75;3.00;;;11.70;99.90;;;;;;5072711;28;20083;-73
2022/01/05 10:06:26;;;;;;;13.75;3.08;;;12.20;99.90;;;;;;5065952;28;20072;-74
2022/01/05 10:08:53;;;;;;;13.45;3.65;;;12.70;99.90;;;;;;5049968;28;20692;-72
2022/01/05 10:11:22;;;;;;;13.43;2.95;;;13.20;99.90;;;;;;5056210;28;20429;-73
2022/01/05 10:13:49;;;;;;;13.83;2.63;;;12.90;99.90;;;;;;5068989;28;20500;-73
2022/01/05 10:16:16;;;;;;;10.60;2.60;;;13.30;99.90;;;;;;5070466;28;20322;-74
2022/01/05 10:18:45;;;;;;;14.95;2.60;;;13.10;99.90;;;;;;5072399;28;20054;-73
2022/01/05 10:21:15;;;;;;;11.38;2.88;;;13.40;99.90;;;;;;5072320;28;20224;-73
2022/01/05 10:23:45;;;;;;;10.48;2.70;;;13.80;99.90;;;;;;5066663;28;20080;-74
2022/01/05 10:26:24;;;;;;;7.38;2.47;;;13.80;99.90;;;;;;5068948;28;20113;-74
2022/01/05 10:28:52;;;;;;;10.70;3.65;;;14.40;99.90;;;;;;5071221;28;20148;-73
2022/01/05 10:31:28;;;;;;;13.52;3.15;;;14.50;99.90;;;;;;5075970;28;20090;-72
2022/01/05 10:33:59;;;;;;;11.85;2.90;;;14.90;99.90;;;;;;5066600;28;20056;-73
2022/01/05 10:36:48;;;;;;;12.75;3.13;;;14.80;99.90;;;;;;5059202;28;20061;-74
2022/01/05 10:39:20;;;;;;;9.25;3.25;;;14.50;99.90;;;;;;5068854;28;20084;-73
2022/01/05 10:41:48;;;;;;;14.23;3.10;;;14.40;99.90;;;;;;5067049;28;20044;-74
2022/01/05 10:44:18;;;;;;;12.88;3.47;;;14.80;99.90;;;;;;5071161;28;20063;-74
2022/01/05 10:46:48;;;;;;;14.00;3.08;;;14.20;99.90;;;;;;5068476;28;20044;-74
2022/01/05 10:49:35;;;;;;;19.85;4.32;;;13.20;99.90;;;;;;5051514;28;20134;-74
2022/01/05 10:52:20;;;;;;;15.82;4.43;;;12.30;99.90;;;;;;5051650;28;20045;-73
2022/01/05 10:54:47;;;;;;;15.32;4.00;;;11.90;99.90;;;;;;5051489;28;20496;-74
2022/01/05 10:57:15;;;;;;;14.05;4.18;;;11.90;99.90;;;;;;5051052;28;20057;-74
2022/01/05 10:59:45;;;;;;;15.93;3.88;;;11.70;99.90;;;;;;5068747;28;20052;-74
2022/01/05 11:02:22;;;;;;;15.82;5.00;;;11.30;99.90;;;;;;5051476;28;20136;-73
2022/01/05 11:04:51;;;;;;;15.90;4.13;;;11.20;99.90;;;;;;5050941;28;20394;-73
2022/01/05 11:07:23;;;;;;;22.02;3.97;;;10.80;99.90;;;;;;5054834;28;20535;-74
2022/01/05 11:09:56;;;;;;;11.85;3.67;;;11.30;99.90;;;;;;5066326;28;20086;-74
2022/01/05 11:12:32;;;;;;;19.63;4.57;;;12.00;99.90;;;;;;5070443;28;20044;-73
2022/01/05 11:15:20;;;;;;;18.30;5.45;;;11.80;99.90;;;;;;5071271;28;20063;-74
2022/01/05 11:18:14;;;;;;;12.52;4.32;;;11.80;99.90;;;;;;5070543;28;20052;-73
2022/01/05 11:20:46;;;;;;;15.20;4.20;;;12.70;99.90;;;;;;5067702;28;20102;-74
2022/01/05 11:23:14;;;;;;;14.55;3.45;;;13.50;99.90;;;;;;5066039;28;20148;-73
2022/01/05 11:25:43;;;;;;;13.50;3.67;;;13.30;99.90;;;;;;5070089;28;20121;-73
2022/01/05 11:28:11;;;;;;;7.63;2.93;;;14.20;99.90;;;;;;5061768;28;20553;-73
2022/01/05 11:30:39;;;;;;;11.38;2.90;;;14.50;99.90;;;;;;5063133;28;20045;-73
2022/01/05 11:33:07;;;;;;;15.18;3.70;;;15.10;99.90;;;;;;5070496;28;20080;-73
2022/01/05 11:35:34;;;;;;;15.27;3.58;;;15.30;99.90;;;;;;5063042;28;20052;-73
2022/01/05 11:38:03;;;;;;;20.50;4.75;;;15.60;99.90;;;;;;5051291;28;20052;-73
2022/01/05 11:40:32;;;;;;;13.23;3.42;;;15.40;99.90;;;;;;5058020;28;20101;-74
2022/01/05 11:43:00;;;;;;;11.82;3.50;;;15.00;99.90;;;;;;5055438;28;20069;-74
2022/01/05 11:45:31;;;;;;;12.93;3.42;;;14.70;99.90;;;;;;5070600;28;20052;-74
2022/01/05 11:48:11;;;;;;;;;;;14.90;99.90;;;;;;5056569;28;20566;-74
2022/01/05 11:50:44;;;;;;;12.70;3.67;;;14.80;99.90;;;;;;5056645;28;19929;-73
2022/01/05 11:53:12;;;;;;;15.35;3.65;;;14.30;99.90;;;;;;5058447;28;20400;-72
2022/01/05 11:56:09;;;;;;;16.65;3.65;;;13.30;99.90;;;;;;5056355;28;20052;-74
2022/01/05 11:58:37;;;;;;;15.75;3.17;;;13.60;99.90;;;;;;5062089;28;20053;-74
2022/01/05 12:01:28;;;;;;;8.88;3.22;;;13.80;99.90;;;;;;5065638;28;20094;-74
2022/01/05 12:04:03;;;;;;;;;;;14.90;99.90;;;;;;5062554;28;20060;-71
2022/01/05 12:06:32;;;;;;;10.32;3.28;;;15.20;99.90;;;;;;5054900;28;20015;-72
2022/01/05 12:09:02;;;;;;;8.93;3.00;;;14.80;99.90;;;;;;5064381;28;20052;-72
2022/01/05 12:11:30;;;;;;;11.38;2.85;;;15.00;99.90;;;;;;5051392;28;20095;-72
2022/01/05 12:13:57;;;;;;;9.65;3.13;;;15.40;99.90;;;;;;5069756;28;20098;-74
2022/01/05 12:16:24;;;;;;;10.00;2.55;;;14.80;99.90;;;;;;5069894;28;20057;-72
2022/01/05 12:19:05;;;;;;;6.63;2.42;;;13.40;99.90;;;;;;5070561;28;20126;-75
2022/01/05 12:21:44;;;;;;;10.93;2.40;;;12.30;99.90;;;;;;5069580;28;20143;-75
2022/01/05 12:24:12;;;;;;;9.88;2.38;;;11.60;99.90;;;;;;5070286;28;20373;-75
2022/01/05 12:26:39;;;;;;;9.07;2.72;;;11.90;99.90;;;;;;5058103;28;20126;-75
2022/01/05 12:29:07;;;;;;;10.50;2.80;;;11.60;99.90;;;;;;5057689;28;20048;-73
2022/01/05 12:31:58;;;;;;;10.15;2.88;;;11.70;99.90;;;;;;5069619;28;20088;-73
2022/01/05 12:34:54;;;;;;;9.85;2.97;;;12.10;99.90;;;;;;5069571;28;20048;-73
2022/01/05 12:37:42;;;;;;;10.48;2.95;;;13.20;99.90;;;;;;5069533;28;20049;-74
2022/01/05 12:40:33;;;;;;;11.38;3.40;;;13.90;99.90;;;;;;5074260;28;20451;-74
2022/01/05 12:43:28;;;;;;;14.88;3.30;;;14.10;99.90;;;;;;5067013;28;20133;-73
2022/01/05 12:45:57;;;;;;;12.75;3.38;;;13.30;99.90;;;;;;5074080;28;20048;-73
2022/01/05 12:48:59;;;;;;;13.98;3.92;;;12.30;99.90;;;;;;5074114;28;20156;-73
2022/01/05 12:51:47;;;;;;;15.27;3.92;;;11.20;99.90;;;;;;5069996;28;20048;-73
2022/01/05 12:54:18;;;;;;;15.70;3.95;;;10.60;99.90;;;;;;5073309;28;20056;-73
2022/01/05 12:56:48;;;;;;;;;;;10.20;99.90;;;;;;5073443;28;20143;-72
2022/01/05 12:59:21;;;;;;;14.65;4.43;;;9.80;99.90;;;;;;5057165;28;19948;-73